createdAt,value
2017-01-18T00:00:32.336Z,0
2017-01-18T00:01:32.753Z,0
2017-01-18T00:02:32.378Z,0
2017-01-18T00:03:32.406Z,0
2017-01-18T00:04:32.035Z,0
2017-01-18T00:05:32.060Z,0
2017-01-18T00:06:32.093Z,0
2017-01-18T00:07:32.902Z,0
2017-01-18T00:08:32.927Z,0
2017-01-18T00:09:32.165Z,0
2017-01-18T00:10:32.587Z,0
2017-01-18T00:11:31.821Z,0
2017-01-18T00:12:32.250Z,0
2017-01-18T00:13:32.671Z,0
2017-01-18T00:14:32.291Z,0
2017-01-18T00:15:32.340Z,0
2017-01-18T00:16:32.745Z,0
2017-01-18T00:17:33.170Z,0
2017-01-18T00:18:32.809Z,0
2017-01-18T00:19:32.819Z,0
2017-01-18T00:20:32.056Z,0
2017-01-18T00:21:32.480Z,0
2017-01-18T00:22:32.893Z,0
2017-01-18T00:23:32.922Z,0
2017-01-18T00:24:32.155Z,0
2017-01-18T00:25:33.372Z,0
2017-01-18T00:26:33.032Z,0
2017-01-18T00:27:33.417Z,0
2017-01-18T00:28:33.450Z,0
2017-01-18T00:29:32.678Z,0
2017-01-18T00:30:32.703Z,0
2017-01-18T00:31:32.736Z,0
2017-01-18T00:32:32.369Z,0
2017-01-18T00:33:33.190Z,0
2017-01-18T00:34:33.211Z,0
2017-01-18T00:35:33.231Z,0
2017-01-18T00:36:32.864Z,0
2017-01-18T00:37:33.285Z,0
2017-01-18T00:38:32.910Z,0
2017-01-18T00:39:32.941Z,0
2017-01-18T00:40:32.970Z,0
2017-01-18T00:41:32.592Z,0
2017-01-18T00:42:33.026Z,0
2017-01-18T00:43:32.641Z,0
2017-01-18T00:44:33.066Z,0
2017-01-18T00:45:33.483Z,0
2017-01-18T00:46:33.512Z,0
2017-01-18T00:47:33.540Z,0
2017-01-18T00:48:33.573Z,0
2017-01-18T00:49:33.193Z,0
2017-01-18T00:50:33.218Z,0
2017-01-18T00:51:33.639Z,0
2017-01-18T00:52:33.276Z,0
2017-01-18T00:53:33.692Z,0
2017-01-18T00:54:34.113Z,0
2017-01-18T00:55:34.134Z,0
2017-01-18T00:56:32.979Z,0
2017-01-18T00:57:33.396Z,0
2017-01-18T00:58:33.837Z,0
2017-01-18T00:59:33.054Z,0
2017-01-18T01:00:33.868Z,0
2017-01-18T01:01:33.899Z,0
2017-01-18T01:02:33.919Z,0
2017-01-18T01:03:33.947Z,0
2017-01-18T01:04:33.973Z,0
2017-01-18T01:05:34.401Z,0
2017-01-18T01:06:33.630Z,0
2017-01-18T01:07:34.055Z,0
2017-01-18T01:08:33.280Z,0
2017-01-18T01:09:34.096Z,0
2017-01-18T01:10:33.333Z,0
2017-01-18T01:11:34.162Z,0
2017-01-18T01:12:33.779Z,0
2017-01-18T01:13:34.199Z,0
2017-01-18T01:14:33.860Z,0
2017-01-18T01:15:34.265Z,0
2017-01-18T01:16:33.493Z,0
2017-01-18T01:17:34.301Z,0
2017-01-18T01:18:34.727Z,0
2017-01-18T01:19:33.960Z,0
2017-01-18T01:20:34.381Z,0
2017-01-18T01:21:34.417Z,0
2017-01-18T01:22:34.834Z,0
2017-01-18T01:23:33.662Z,0
2017-01-18T01:24:33.691Z,0
2017-01-18T01:25:34.108Z,0
2017-01-18T01:26:34.140Z,0
2017-01-18T01:27:34.166Z,0
2017-01-18T01:28:34.218Z,0
2017-01-18T01:29:34.607Z,0
2017-01-18T01:30:35.036Z,0
2017-01-18T01:31:34.652Z,0
2017-01-18T01:32:33.926Z,0
2017-01-18T01:33:34.314Z,0
2017-01-18T01:34:34.734Z,0
2017-01-18T01:35:34.363Z,0
2017-01-18T01:36:34.788Z,0
2017-01-18T01:37:34.421Z,0
2017-01-18T01:38:35.233Z,0
2017-01-18T01:39:34.866Z,0
2017-01-18T01:40:34.494Z,0
2017-01-18T01:41:34.508Z,0
2017-01-18T01:42:34.544Z,0
2017-01-18T01:43:34.567Z,0
2017-01-18T01:44:34.202Z,0
2017-01-18T01:45:34.622Z,0
2017-01-18T01:46:35.043Z,0
2017-01-18T01:47:35.072Z,0
2017-01-18T01:48:35.096Z,0
2017-01-18T01:49:34.329Z,0
2017-01-18T01:50:34.741Z,0
2017-01-18T01:51:34.770Z,0
2017-01-18T01:52:34.787Z,0
2017-01-18T01:53:34.421Z,0
2017-01-18T01:54:34.848Z,0
2017-01-18T01:55:34.870Z,0
2017-01-18T01:56:35.294Z,0
2017-01-18T01:57:35.723Z,0
2017-01-18T01:58:34.555Z,0
2017-01-18T01:59:34.972Z,0
2017-01-18T02:00:35.400Z,0
2017-01-18T02:01:35.416Z,0
2017-01-18T02:02:35.446Z,0
2017-01-18T02:03:35.083Z,0
2017-01-18T02:04:35.900Z,0
2017-01-18T02:05:35.124Z,0
2017-01-18T02:06:34.757Z,0
2017-01-18T02:07:35.177Z,0
2017-01-18T02:08:35.226Z,0
2017-01-18T02:09:34.831Z,0
2017-01-18T02:10:35.248Z,0
2017-01-18T02:11:35.281Z,0
2017-01-18T02:12:36.101Z,0
2017-01-18T02:13:36.118Z,0
2017-01-18T02:14:35.751Z,0
2017-01-18T02:15:35.771Z,0
2017-01-18T02:16:35.396Z,0
2017-01-18T02:17:35.432Z,0
2017-01-18T02:18:35.457Z,0
2017-01-18T02:19:36.266Z,0
2017-01-18T02:20:35.498Z,0
2017-01-18T02:21:35.532Z,0
2017-01-18T02:22:36.348Z,0
2017-01-18T02:23:36.371Z,0
2017-01-18T02:24:36.005Z,0
2017-01-18T02:25:35.634Z,0
2017-01-18T02:26:35.263Z,0
2017-01-18T02:27:35.683Z,0
2017-01-18T02:28:35.709Z,0
2017-01-18T02:29:36.157Z,0
2017-01-18T02:30:36.158Z,0
2017-01-18T02:31:36.574Z,0
2017-01-18T02:32:35.411Z,0
2017-01-18T02:33:35.444Z,0
2017-01-18T02:34:36.256Z,0
2017-01-18T02:35:35.877Z,0
2017-01-18T02:36:36.310Z,0
2017-01-18T02:37:35.935Z,0
2017-01-18T02:38:36.356Z,0
2017-01-18T02:39:36.385Z,0
2017-01-18T02:40:36.001Z,0
2017-01-18T02:41:36.041Z,0
2017-01-18T02:42:36.462Z,0
2017-01-18T02:43:36.091Z,0
2017-01-18T02:44:36.105Z,0
2017-01-18T02:45:36.140Z,0
2017-01-18T02:46:36.165Z,0
2017-01-18T02:47:36.585Z,0
2017-01-18T02:48:36.607Z,0
2017-01-18T02:49:35.839Z,0
2017-01-18T02:50:36.659Z,0
2017-01-18T02:51:36.683Z,0
2017-01-18T02:52:36.705Z,0
2017-01-18T02:53:35.942Z,0
2017-01-18T02:54:36.366Z,0
2017-01-18T02:55:36.374Z,0
2017-01-18T02:56:36.413Z,0
2017-01-18T02:57:36.440Z,0
2017-01-18T02:58:36.465Z,0
2017-01-18T02:59:36.093Z,0
2017-01-18T03:00:36.115Z,0
2017-01-18T03:01:36.539Z,0
2017-01-18T03:02:37.364Z,0
2017-01-18T03:03:36.597Z,0
2017-01-18T03:04:37.050Z,0
2017-01-18T03:05:36.638Z,0
2017-01-18T03:06:37.058Z,0
2017-01-18T03:07:36.695Z,0
2017-01-18T03:08:36.720Z,0
2017-01-18T03:09:37.137Z,0
2017-01-18T03:10:37.177Z,0
2017-01-18T03:11:36.802Z,0
2017-01-18T03:12:37.615Z,0
2017-01-18T03:13:37.243Z,0
2017-01-18T03:14:36.864Z,0
2017-01-18T03:15:37.296Z,0
2017-01-18T03:16:36.917Z,0
2017-01-18T03:17:37.338Z,0
2017-01-18T03:18:36.966Z,0
2017-01-18T03:19:36.995Z,0
2017-01-18T03:20:37.416Z,0
2017-01-18T03:21:37.837Z,0
2017-01-18T03:22:37.862Z,0
2017-01-18T03:23:37.098Z,0
2017-01-18T03:24:37.119Z,0
2017-01-18T03:25:37.544Z,0
2017-01-18T03:26:36.765Z,0
2017-01-18T03:27:37.593Z,0
2017-01-18T03:28:37.610Z,0
2017-01-18T03:29:38.058Z,0
2017-01-18T03:30:36.866Z,0
2017-01-18T03:31:37.304Z,0
2017-01-18T03:32:36.924Z,0
2017-01-18T03:33:36.953Z,0
2017-01-18T03:34:37.782Z,0
2017-01-18T03:35:37.787Z,0
2017-01-18T03:36:37.415Z,0
2017-01-18T03:37:37.836Z,0
2017-01-18T03:38:37.076Z,0
2017-01-18T03:39:37.498Z,0
2017-01-18T03:40:37.122Z,0
2017-01-18T03:41:37.935Z,0
2017-01-18T03:42:37.564Z,0
2017-01-18T03:43:37.596Z,0
2017-01-18T03:44:38.013Z,0
2017-01-18T03:45:37.246Z,0
2017-01-18T03:46:37.665Z,0
2017-01-18T03:47:38.474Z,0
2017-01-18T03:48:37.324Z,0
2017-01-18T03:49:37.749Z,0
2017-01-18T03:50:37.766Z,0
2017-01-18T03:51:38.570Z,0
2017-01-18T03:52:37.818Z,0
2017-01-18T03:53:37.851Z,0
2017-01-18T03:54:37.480Z,0
2017-01-18T03:55:37.892Z,0
2017-01-18T03:56:37.520Z,0
2017-01-18T03:57:37.946Z,0
2017-01-18T03:58:38.366Z,0
2017-01-18T03:59:38.787Z,0
2017-01-18T04:00:38.812Z,0
2017-01-18T04:01:38.437Z,0
2017-01-18T04:02:38.075Z,0
2017-01-18T04:03:38.098Z,0
2017-01-18T04:04:38.130Z,0
2017-01-18T04:05:38.543Z,0
2017-01-18T04:06:38.572Z,0
2017-01-18T04:07:38.625Z,0
2017-01-18T04:08:38.618Z,0
2017-01-18T04:09:38.246Z,0
2017-01-18T04:10:38.272Z,0
2017-01-18T04:11:39.095Z,0
2017-01-18T04:12:37.928Z,0
2017-01-18T04:13:38.349Z,0
2017-01-18T04:14:38.370Z,0
2017-01-18T04:15:38.790Z,0
2017-01-18T04:16:39.215Z,0
2017-01-18T04:17:39.239Z,0
2017-01-18T04:18:38.864Z,0
2017-01-18T04:19:38.500Z,0
2017-01-18T04:20:38.517Z,0
2017-01-18T04:21:38.577Z,0
2017-01-18T04:22:38.970Z,0
2017-01-18T04:23:38.197Z,0
2017-01-18T04:24:39.019Z,0
2017-01-18T04:25:39.444Z,0
2017-01-18T04:26:39.460Z,0
2017-01-18T04:27:38.700Z,0
2017-01-18T04:28:39.117Z,0
2017-01-18T04:29:39.133Z,0
2017-01-18T04:30:39.562Z,0
2017-01-18T04:31:38.802Z,0
2017-01-18T04:32:38.847Z,0
2017-01-18T04:33:39.238Z,0
2017-01-18T04:34:39.284Z,0
2017-01-18T04:35:38.893Z,0
2017-01-18T04:36:38.910Z,0
2017-01-18T04:37:38.945Z,0
2017-01-18T04:38:38.971Z,0
2017-01-18T04:39:38.595Z,0
2017-01-18T04:40:39.416Z,0
2017-01-18T04:41:39.437Z,0
2017-01-18T04:42:39.070Z,0
2017-01-18T04:43:39.490Z,0
2017-01-18T04:44:39.115Z,0
2017-01-18T04:45:39.135Z,0
2017-01-18T04:46:39.173Z,0
2017-01-18T04:47:38.793Z,0
2017-01-18T04:48:38.821Z,0
2017-01-18T04:49:39.634Z,0
2017-01-18T04:50:39.656Z,0
2017-01-18T04:51:38.895Z,0
2017-01-18T04:52:39.721Z,0
2017-01-18T04:53:39.761Z,0
2017-01-18T04:54:39.366Z,0
2017-01-18T04:55:38.990Z,0
2017-01-18T04:56:39.023Z,0
2017-01-18T04:57:40.235Z,0
2017-01-18T04:58:40.252Z,0
2017-01-18T04:59:39.497Z,0
2017-01-18T05:00:39.517Z,0
2017-01-18T05:01:39.147Z,0
2017-01-18T05:02:39.559Z,0
2017-01-18T05:03:39.985Z,0
2017-01-18T05:04:40.420Z,0
2017-01-18T05:05:40.025Z,0
2017-01-18T05:06:39.270Z,0
2017-01-18T05:07:40.078Z,0
2017-01-18T05:08:39.715Z,0
2017-01-18T05:09:39.344Z,0
2017-01-18T05:10:40.160Z,0
2017-01-18T05:11:39.797Z,0
2017-01-18T05:12:40.214Z,0
2017-01-18T05:13:40.232Z,0
2017-01-18T05:14:40.263Z,0
2017-01-18T05:15:39.495Z,0
2017-01-18T05:16:40.308Z,0
2017-01-18T05:17:39.554Z,0
2017-01-18T05:18:39.966Z,0
2017-01-18T05:19:39.990Z,0
2017-01-18T05:20:40.411Z,0
2017-01-18T05:21:40.432Z,0
2017-01-18T05:22:39.660Z,0
2017-01-18T05:23:40.485Z,0
2017-01-18T05:24:40.906Z,0
2017-01-18T05:25:39.742Z,0
2017-01-18T05:26:39.764Z,0
2017-01-18T05:27:39.797Z,0
2017-01-18T05:28:40.613Z,0
2017-01-18T05:29:40.237Z,0
2017-01-18T05:30:41.058Z,0
2017-01-18T05:31:39.899Z,0
2017-01-18T05:32:40.320Z,0
2017-01-18T05:33:39.951Z,0
2017-01-18T05:34:40.362Z,0
2017-01-18T05:35:39.990Z,0
2017-01-18T05:36:41.207Z,0
2017-01-18T05:37:41.232Z,0
2017-01-18T05:38:41.253Z,0
2017-01-18T05:39:40.560Z,0
2017-01-18T05:40:40.516Z,0
2017-01-18T05:41:40.145Z,0
2017-01-18T05:42:41.355Z,0
2017-01-18T05:43:40.596Z,0
2017-01-18T05:44:41.017Z,0
2017-01-18T05:45:41.033Z,0
2017-01-18T05:46:41.059Z,0
2017-01-18T05:47:40.685Z,0
2017-01-18T05:48:40.717Z,0
2017-01-18T05:49:40.740Z,0
2017-01-18T05:50:40.761Z,0
2017-01-18T05:51:41.582Z,0
2017-01-18T05:52:40.419Z,0
2017-01-18T05:53:41.631Z,0
2017-01-18T05:54:41.285Z,0
2017-01-18T05:55:41.288Z,0
2017-01-18T05:56:41.710Z,0
2017-01-18T05:57:41.334Z,0
2017-01-18T05:58:40.566Z,0
2017-01-18T05:59:41.385Z,0
2017-01-18T06:00:41.017Z,0
2017-01-18T06:01:41.037Z,0
2017-01-18T06:02:41.854Z,0
2017-01-18T06:03:41.490Z,0
2017-01-18T06:04:40.720Z,0
2017-01-18T06:05:41.140Z,0
2017-01-18T06:06:40.777Z,0
2017-01-18T06:07:41.194Z,0
2017-01-18T06:08:41.614Z,0
2017-01-18T06:09:41.636Z,0
2017-01-18T06:10:41.264Z,0
2017-01-18T06:11:42.084Z,0
2017-01-18T06:12:41.702Z,0
2017-01-18T06:13:41.750Z,0
2017-01-18T06:14:41.371Z,0
2017-01-18T06:15:41.792Z,0
2017-01-18T06:16:41.826Z,0
2017-01-18T06:17:41.445Z,0
2017-01-18T06:18:42.258Z,0
2017-01-18T06:19:41.499Z,0
2017-01-18T06:20:41.135Z,0
2017-01-18T06:21:41.940Z,0
2017-01-18T06:22:41.571Z,0
2017-01-18T06:23:41.602Z,0
2017-01-18T06:24:41.223Z,0
2017-01-18T06:25:42.440Z,0
2017-01-18T06:26:41.286Z,0
2017-01-18T06:27:41.697Z,0
2017-01-18T06:28:41.726Z,0
2017-01-18T06:29:42.535Z,0
2017-01-18T06:30:42.163Z,0
2017-01-18T06:31:41.800Z,0
2017-01-18T06:32:41.828Z,0
2017-01-18T06:33:41.838Z,0
2017-01-18T06:34:41.874Z,0
2017-01-18T06:35:41.508Z,0
2017-01-18T06:36:41.526Z,0
2017-01-18T06:37:42.350Z,0
2017-01-18T06:38:42.376Z,0
2017-01-18T06:39:41.999Z,0
2017-01-18T06:40:41.633Z,0
2017-01-18T06:41:42.452Z,0
2017-01-18T06:42:42.073Z,0
2017-01-18T06:43:42.130Z,0
2017-01-18T06:44:42.523Z,0
2017-01-18T06:45:41.755Z,0
2017-01-18T06:46:41.784Z,0
2017-01-18T06:47:42.993Z,0
2017-01-18T06:48:42.622Z,0
2017-01-18T06:49:43.047Z,0
2017-01-18T06:50:42.283Z,0
2017-01-18T06:51:42.308Z,0
2017-01-18T06:52:41.933Z,4
2017-01-18T06:53:42.753Z,4
2017-01-18T06:54:42.774Z,0
2017-01-18T06:55:42.811Z,4
2017-01-18T06:56:42.828Z,4
2017-01-18T06:57:42.456Z,4
2017-01-18T06:58:42.877Z,4
2017-01-18T06:59:42.510Z,8
2017-01-18T07:00:42.551Z,4
2017-01-18T07:01:42.955Z,8
2017-01-18T07:02:42.981Z,8
2017-01-18T07:03:43.010Z,8
2017-01-18T07:04:42.634Z,12
2017-01-18T07:05:43.062Z,12
2017-01-18T07:06:43.084Z,12
2017-01-18T07:07:43.108Z,16
2017-01-18T07:08:42.367Z,20
2017-01-18T07:09:42.766Z,24
2017-01-18T07:10:42.778Z,24
2017-01-18T07:11:42.816Z,24
2017-01-18T07:12:42.837Z,28
2017-01-18T07:13:42.869Z,32
2017-01-18T07:14:42.894Z,36
2017-01-18T07:15:43.314Z,40
2017-01-18T07:16:43.736Z,40
2017-01-18T07:17:43.364Z,48
2017-01-18T07:18:42.604Z,52
2017-01-18T07:19:42.621Z,56
2017-01-18T07:20:43.046Z,60
2017-01-18T07:21:42.679Z,68
2017-01-18T07:22:43.120Z,68
2017-01-18T07:23:42.729Z,76
2017-01-18T07:24:42.749Z,80
2017-01-18T07:25:43.565Z,88
2017-01-18T07:26:43.591Z,92
2017-01-18T07:27:43.619Z,100
2017-01-18T07:28:43.643Z,104
2017-01-18T07:29:43.268Z,112
2017-01-18T07:30:42.910Z,120
2017-01-18T07:31:43.322Z,124
2017-01-18T07:32:43.347Z,132
2017-01-18T07:33:43.771Z,140
2017-01-18T07:34:43.400Z,144
2017-01-18T07:35:43.826Z,152
2017-01-18T07:36:44.250Z,160
2017-01-18T07:37:43.474Z,168
2017-01-18T07:38:43.895Z,180
2017-01-18T07:39:43.552Z,180
2017-01-18T07:40:43.165Z,192
2017-01-18T07:41:43.191Z,200
2017-01-18T07:42:44.399Z,212
2017-01-18T07:43:44.024Z,216
2017-01-18T07:44:44.448Z,228
2017-01-18T07:45:44.081Z,236
2017-01-18T07:46:44.501Z,240
2017-01-18T07:47:43.726Z,256
2017-01-18T07:48:44.551Z,268
2017-01-18T07:49:43.788Z,284
2017-01-18T07:50:43.413Z,300
2017-01-18T07:51:44.628Z,292
2017-01-18T07:52:43.850Z,300
2017-01-18T07:53:44.283Z,316
2017-01-18T07:54:43.520Z,312
2017-01-18T07:55:44.348Z,304
2017-01-18T07:56:43.565Z,312
2017-01-18T07:57:43.992Z,320
2017-01-18T07:58:44.014Z,348
2017-01-18T07:59:44.823Z,316
2017-01-18T08:00:44.068Z,312
2017-01-18T08:01:44.489Z,352
2017-01-18T08:02:44.906Z,392
2017-01-18T08:03:44.538Z,400
2017-01-18T08:04:44.571Z,376
2017-01-18T08:05:44.227Z,400
2017-01-18T08:06:43.825Z,388
2017-01-18T08:07:44.245Z,404
2017-01-18T08:08:44.266Z,384
2017-01-18T08:09:44.286Z,368
2017-01-18T08:10:43.924Z,388
2017-01-18T08:11:44.364Z,420
2017-01-18T08:12:45.162Z,440
2017-01-18T08:13:44.390Z,448
2017-01-18T08:14:44.810Z,424
2017-01-18T08:15:45.231Z,480
2017-01-18T08:16:44.472Z,468
2017-01-18T08:17:44.496Z,524
2017-01-18T08:18:44.921Z,608
2017-01-18T08:19:44.550Z,532
2017-01-18T08:20:44.975Z,464
2017-01-18T08:21:45.000Z,492
2017-01-18T08:22:45.020Z,532
2017-01-18T08:23:44.648Z,484
2017-01-18T08:24:44.677Z,492
2017-01-18T08:25:44.690Z,548
2017-01-18T08:26:44.759Z,560
2017-01-18T08:27:44.756Z,632
2017-01-18T08:28:45.177Z,576
2017-01-18T08:29:45.597Z,592
2017-01-18T08:30:45.225Z,656
2017-01-18T08:31:45.247Z,668
2017-01-18T08:32:45.279Z,704
2017-01-18T08:33:44.900Z,696
2017-01-18T08:34:44.537Z,688
2017-01-18T08:35:44.953Z,664
2017-01-18T08:36:45.375Z,688
2017-01-18T08:37:45.007Z,780
2017-01-18T08:38:45.060Z,800
2017-01-18T08:39:45.469Z,652
2017-01-18T08:40:45.478Z,716
2017-01-18T08:41:45.110Z,740
2017-01-18T08:42:45.134Z,720
2017-01-18T08:43:45.164Z,776
2017-01-18T08:44:44.788Z,788
2017-01-18T08:45:45.216Z,608
2017-01-18T08:46:45.237Z,800
2017-01-18T08:47:46.055Z,760
2017-01-18T08:48:46.092Z,784
2017-01-18T08:49:45.320Z,884
2017-01-18T08:50:45.349Z,900
2017-01-18T08:51:44.965Z,900
2017-01-18T08:52:45.786Z,780
2017-01-18T08:53:45.411Z,912
2017-01-18T08:54:45.840Z,996
2017-01-18T08:55:46.260Z,932
2017-01-18T08:56:45.501Z,980
2017-01-18T08:57:45.514Z,972
2017-01-18T08:58:46.338Z,1068
2017-01-18T08:59:46.363Z,1008
2017-01-18T09:00:45.996Z,1556
2017-01-18T09:01:46.021Z,1140
2017-01-18T09:02:45.241Z,1016
2017-01-18T09:03:46.066Z,1104
2017-01-18T09:04:46.487Z,1056
2017-01-18T09:05:45.720Z,992
2017-01-18T09:06:45.349Z,1420
2017-01-18T09:07:45.401Z,1304
2017-01-18T09:08:45.394Z,1208
2017-01-18T09:09:45.817Z,1408
2017-01-18T09:10:46.635Z,1756
2017-01-18T09:11:45.860Z,1924
2017-01-18T09:12:45.929Z,1704
2017-01-18T09:13:46.714Z,1664
2017-01-18T09:14:46.346Z,1868
2017-01-18T09:15:46.796Z,1800
2017-01-18T09:16:46.000Z,1992
2017-01-18T09:17:46.421Z,1496
2017-01-18T09:18:46.055Z,1688
2017-01-18T09:19:46.070Z,1640
2017-01-18T09:20:46.103Z,1936
2017-01-18T09:21:46.528Z,1472
2017-01-18T09:22:46.551Z,2204
2017-01-18T09:23:45.783Z,1692
2017-01-18T09:24:46.205Z,1612
2017-01-18T09:25:46.634Z,1980
2017-01-18T09:26:46.263Z,1972
2017-01-18T09:27:46.276Z,2380
2017-01-18T09:28:46.709Z,1580
2017-01-18T09:29:46.730Z,1644
2017-01-18T09:30:47.166Z,2132
2017-01-18T09:31:46.409Z,2300
2017-01-18T09:32:46.811Z,2052
2017-01-18T09:33:46.046Z,1520
2017-01-18T09:34:46.453Z,2108
2017-01-18T09:35:46.882Z,2180
2017-01-18T09:36:46.513Z,2116
2017-01-18T09:37:47.319Z,2008
2017-01-18T09:38:47.366Z,1988
2017-01-18T09:39:46.587Z,2300
2017-01-18T09:40:46.620Z,1700
2017-01-18T09:41:46.250Z,1888
2017-01-18T09:42:47.057Z,1988
2017-01-18T09:43:46.294Z,1692
2017-01-18T09:44:47.114Z,1864
2017-01-18T09:45:47.526Z,2436
2017-01-18T09:46:47.551Z,1840
2017-01-18T09:47:46.784Z,1864
2017-01-18T09:48:47.617Z,2376
2017-01-18T09:49:46.832Z,1980
2017-01-18T09:50:46.470Z,2140
2017-01-18T09:51:47.287Z,1720
2017-01-18T09:52:46.520Z,1800
2017-01-18T09:53:47.341Z,1984
2017-01-18T09:54:47.761Z,1876
2017-01-18T09:55:47.385Z,2040
2017-01-18T09:56:47.014Z,2424
2017-01-18T09:57:47.051Z,2376
2017-01-18T09:58:47.467Z,1936
2017-01-18T09:59:47.124Z,2004
2017-01-18T10:00:47.129Z,1580
2017-01-18T10:01:47.546Z,2364
2017-01-18T10:02:47.175Z,2228
2017-01-18T10:03:47.603Z,2660
2017-01-18T10:04:47.239Z,2376
2017-01-18T10:05:46.856Z,2032
2017-01-18T10:06:47.669Z,1984
2017-01-18T10:07:47.698Z,1840
2017-01-18T10:08:47.719Z,1952
2017-01-18T10:09:48.139Z,1960
2017-01-18T10:10:47.380Z,2152
2017-01-18T10:11:48.197Z,1580
2017-01-18T10:12:47.025Z,1480
2017-01-18T10:13:48.158Z,1228
2017-01-18T10:14:47.523Z,1432
2017-01-18T10:15:47.900Z,2900
2017-01-18T10:16:47.145Z,1760
2017-01-18T10:17:48.357Z,1824
2017-01-18T10:18:47.983Z,1624
2017-01-18T10:19:48.403Z,1276
2017-01-18T10:20:47.235Z,2048
2017-01-18T10:21:48.052Z,1868
2017-01-18T10:22:47.313Z,2516
2017-01-18T10:23:47.722Z,2232
2017-01-18T10:24:48.131Z,2068
2017-01-18T10:25:48.555Z,1540
2017-01-18T10:26:48.188Z,1540
2017-01-18T10:27:48.217Z,1364
2017-01-18T10:28:48.226Z,1684
2017-01-18T10:29:47.474Z,1712
2017-01-18T10:30:47.887Z,1724
2017-01-18T10:31:47.921Z,1216
2017-01-18T10:32:47.945Z,1356
2017-01-18T10:33:48.362Z,1232
2017-01-18T10:34:48.785Z,1388
2017-01-18T10:35:48.031Z,2912
2017-01-18T10:36:48.443Z,1852
2017-01-18T10:37:47.672Z,1380
2017-01-18T10:38:48.097Z,2540
2017-01-18T10:39:47.730Z,2028
2017-01-18T10:40:48.151Z,2676
2017-01-18T10:41:48.571Z,2332
2017-01-18T10:42:48.604Z,1912
2017-01-18T10:43:49.021Z,1808
2017-01-18T10:44:47.854Z,1964
2017-01-18T10:45:48.702Z,1480
2017-01-18T10:46:48.299Z,2144
2017-01-18T10:47:48.728Z,2504
2017-01-18T10:48:48.353Z,2632
2017-01-18T10:49:48.777Z,1592
2017-01-18T10:50:49.206Z,1908
2017-01-18T10:51:48.829Z,1580
2017-01-18T10:52:48.460Z,2088
2017-01-18T10:53:48.484Z,2584
2017-01-18T10:54:48.117Z,1708
2017-01-18T10:55:48.934Z,2112
2017-01-18T10:56:48.170Z,1992
2017-01-18T10:57:48.591Z,1584
2017-01-18T10:58:49.001Z,1724
2017-01-18T10:59:49.040Z,1388
2017-01-18T11:00:49.085Z,1936
2017-01-18T11:01:48.701Z,1896
2017-01-18T11:02:49.115Z,1572
2017-01-18T11:03:48.751Z,1988
2017-01-18T11:04:48.373Z,1324
2017-01-18T11:05:48.790Z,1340
2017-01-18T11:06:49.218Z,1220
2017-01-18T11:07:49.643Z,1232
2017-01-18T11:08:49.659Z,2256
2017-01-18T11:09:49.291Z,1656
2017-01-18T11:10:48.920Z,2168
2017-01-18T11:11:48.941Z,1944
2017-01-18T11:12:49.370Z,1500
2017-01-18T11:13:49.395Z,2016
2017-01-18T11:14:49.024Z,2312
2017-01-18T11:15:49.844Z,2132
2017-01-18T11:16:48.677Z,2392
2017-01-18T11:17:49.105Z,2008
2017-01-18T11:18:49.126Z,1512
2017-01-18T11:19:48.755Z,1976
2017-01-18T11:20:48.779Z,2208
2017-01-18T11:21:49.601Z,1804
2017-01-18T11:22:50.021Z,2416
2017-01-18T11:23:50.040Z,2172
2017-01-18T11:24:49.679Z,2292
2017-01-18T11:25:49.303Z,2224
2017-01-18T11:26:49.356Z,1492
2017-01-18T11:27:49.753Z,2296
2017-01-18T11:28:49.385Z,2320
2017-01-18T11:29:49.811Z,2284
2017-01-18T11:30:49.831Z,2248
2017-01-18T11:31:49.860Z,2228
2017-01-18T11:32:50.276Z,2296
2017-01-18T11:33:50.308Z,2248
2017-01-18T11:34:49.142Z,2144
2017-01-18T11:35:49.575Z,2088
2017-01-18T11:36:49.191Z,2184
2017-01-18T11:37:50.004Z,1776
2017-01-18T11:38:49.634Z,2184
2017-01-18T11:39:50.466Z,2168
2017-01-18T11:40:50.090Z,2116
2017-01-18T11:41:49.715Z,2068
2017-01-18T11:42:49.748Z,2100
2017-01-18T11:43:50.164Z,2088
2017-01-18T11:44:50.193Z,2048
2017-01-18T11:45:49.430Z,2084
2017-01-18T11:46:50.643Z,2064
2017-01-18T11:47:50.668Z,2024
2017-01-18T11:48:50.700Z,2020
2017-01-18T11:49:50.713Z,1960
2017-01-18T11:50:49.941Z,1952
2017-01-18T11:51:49.587Z,1944
2017-01-18T11:52:49.999Z,1932
2017-01-18T11:53:50.424Z,1604
2017-01-18T11:54:50.448Z,1888
2017-01-18T11:55:50.471Z,1852
2017-01-18T11:56:50.503Z,1804
2017-01-18T11:57:49.731Z,1832
2017-01-18T11:58:50.951Z,1824
2017-01-18T11:59:50.977Z,1828
2017-01-18T12:00:50.208Z,1816
2017-01-18T12:01:51.038Z,1796
2017-01-18T12:02:50.259Z,1792
2017-01-18T12:03:50.284Z,1808
2017-01-18T12:04:50.308Z,1756
2017-01-18T12:05:50.330Z,1720
2017-01-18T12:06:50.358Z,1724
2017-01-18T12:07:50.398Z,1764
2017-01-18T12:08:50.811Z,1676
2017-01-18T12:09:50.440Z,1672
2017-01-18T12:10:50.064Z,1600
2017-01-18T12:11:50.881Z,1672
2017-01-18T12:12:50.929Z,1700
2017-01-18T12:13:50.926Z,1584
2017-01-18T12:14:50.567Z,1604
2017-01-18T12:15:50.992Z,1612
2017-01-18T12:16:51.024Z,1576
2017-01-18T12:17:50.246Z,1532
2017-01-18T12:18:50.666Z,1280
2017-01-18T12:19:51.094Z,1520
2017-01-18T12:20:51.119Z,1492
2017-01-18T12:21:51.540Z,1480
2017-01-18T12:22:50.781Z,1492
2017-01-18T12:23:50.805Z,1464
2017-01-18T12:24:50.826Z,1456
2017-01-18T12:25:51.249Z,1400
2017-01-18T12:26:51.271Z,1400
2017-01-18T12:27:51.296Z,1420
2017-01-18T12:28:51.721Z,1456
2017-01-18T12:29:51.745Z,1416
2017-01-18T12:30:51.374Z,1420
2017-01-18T12:31:51.003Z,1376
2017-01-18T12:32:51.032Z,1448
2017-01-18T12:33:51.456Z,1408
2017-01-18T12:34:51.872Z,1380
2017-01-18T12:35:51.514Z,1396
2017-01-18T12:36:51.526Z,1376
2017-01-18T12:37:51.951Z,1368
2017-01-18T12:38:50.784Z,1348
2017-01-18T12:39:50.808Z,1344
2017-01-18T12:40:51.283Z,1360
2017-01-18T12:41:51.662Z,1328
2017-01-18T12:42:51.279Z,1324
2017-01-18T12:43:51.707Z,1308
2017-01-18T12:44:51.732Z,1276
2017-01-18T12:45:52.157Z,1288
2017-01-18T12:46:51.389Z,1284
2017-01-18T12:47:51.818Z,1296
2017-01-18T12:48:51.435Z,1296
2017-01-18T12:49:51.467Z,1288
2017-01-18T12:50:51.488Z,1288
2017-01-18T12:51:51.517Z,1268
2017-01-18T12:52:52.334Z,1280
2017-01-18T12:53:51.983Z,1276
2017-01-18T12:54:52.011Z,1292
2017-01-18T12:55:51.224Z,1268
2017-01-18T12:56:52.436Z,1256
2017-01-18T12:57:51.269Z,1240
2017-01-18T12:58:51.295Z,1276
2017-01-18T12:59:51.723Z,1276
2017-01-18T13:00:52.139Z,1296
2017-01-18T13:01:52.164Z,1296
2017-01-18T13:02:51.792Z,1308
2017-01-18T13:03:51.425Z,1320
2017-01-18T13:04:52.254Z,1308
2017-01-18T13:05:52.271Z,1316
2017-01-18T13:06:52.291Z,1304
2017-01-18T13:07:51.528Z,1296
2017-01-18T13:08:52.753Z,1316
2017-01-18T13:09:52.782Z,1332
2017-01-18T13:10:52.806Z,1360
2017-01-18T13:11:52.423Z,1376
2017-01-18T13:12:52.444Z,1332
2017-01-18T13:13:52.869Z,1312
2017-01-18T13:14:52.105Z,1308
2017-01-18T13:15:51.734Z,1308
2017-01-18T13:16:52.559Z,1316
2017-01-18T13:17:52.967Z,1284
2017-01-18T13:18:52.208Z,1288
2017-01-18T13:19:52.625Z,1300
2017-01-18T13:20:51.861Z,1284
2017-01-18T13:21:52.278Z,1304
2017-01-18T13:22:52.299Z,1300
2017-01-18T13:23:52.344Z,1264
2017-01-18T13:24:52.752Z,1260
2017-01-18T13:25:52.780Z,1248
2017-01-18T13:26:53.206Z,1224
2017-01-18T13:27:52.443Z,1236
2017-01-18T13:28:53.251Z,1244
2017-01-18T13:29:52.484Z,1232
2017-01-18T13:30:52.901Z,1212
2017-01-18T13:31:53.326Z,1188
2017-01-18T13:32:53.350Z,1204
2017-01-18T13:33:52.979Z,1212
2017-01-18T13:34:52.615Z,1208
2017-01-18T13:35:52.248Z,1200
2017-01-18T13:36:52.665Z,1196
2017-01-18T13:37:52.691Z,1204
2017-01-18T13:38:52.315Z,1196
2017-01-18T13:39:53.563Z,1196
2017-01-18T13:40:53.168Z,1172
2017-01-18T13:41:52.800Z,1144
2017-01-18T13:42:52.825Z,1132
2017-01-18T13:43:52.446Z,1132
2017-01-18T13:44:53.259Z,1172
2017-01-18T13:45:52.884Z,1152
2017-01-18T13:46:52.916Z,1108
2017-01-18T13:47:53.345Z,1124
2017-01-18T13:48:53.365Z,1108
2017-01-18T13:49:52.625Z,1112
2017-01-18T13:50:52.622Z,1104
2017-01-18T13:51:53.838Z,1120
2017-01-18T13:52:53.856Z,1120
2017-01-18T13:53:53.893Z,1116
2017-01-18T13:54:53.526Z,1104
2017-01-18T13:55:53.543Z,1084
2017-01-18T13:56:52.767Z,1088
2017-01-18T13:57:53.584Z,1060
2017-01-18T13:58:52.832Z,1048
2017-01-18T13:59:54.041Z,1060
2017-01-18T14:00:53.674Z,1052
2017-01-18T14:01:53.695Z,1036
2017-01-18T14:02:54.116Z,1028
2017-01-18T14:03:53.738Z,1024
2017-01-18T14:04:53.769Z,1032
2017-01-18T14:05:53.402Z,1020